createdAt,value
2019-03-27T00:02:26.645Z,101471.43
2019-03-27T00:05:02.755Z,101471.97
2019-03-27T00:07:39.103Z,101469.17
2019-03-27T00:10:15.250Z,101474.94
2019-03-27T00:12:50.992Z,101476.37
2019-03-27T00:15:26.979Z,101469.58
2019-03-27T00:18:03.936Z,101472.77
2019-03-27T00:20:39.086Z,101476.06
2019-03-27T00:23:14.839Z,101477.22
2019-03-27T00:25:50.536Z,101479.08
2019-03-27T00:28:26.007Z,101480.80
2019-03-27T00:31:01.616Z,101476.14
2019-03-27T00:33:36.954Z,101469.61
2019-03-27T00:36:12.680Z,101475.97
2019-03-27T00:38:48.547Z,101475.06
2019-03-27T00:41:24.172Z,101473.63
2019-03-27T00:44:03.749Z,101467.16
2019-03-27T00:46:39.135Z,101466.43
2019-03-27T00:49:14.710Z,101467.45
2019-03-27T00:51:49.934Z,101467.89
2019-03-27T00:54:25.300Z,101466.23
2019-03-27T00:57:00.720Z,101472.06
2019-03-27T00:59:37.207Z,101475.52
2019-03-27T01:02:12.654Z,101481.72
2019-03-27T01:04:48.074Z,101474.16
2019-03-27T01:07:23.540Z,101475.27
2019-03-27T01:09:59.146Z,101469.66
2019-03-27T01:12:38.000Z,101468.67
2019-03-27T01:15:40.041Z,101462.14
2019-03-27T01:18:16.440Z,101459.19
2019-03-27T01:20:51.603Z,101464.18
2019-03-27T01:23:27.938Z,101458.65
2019-03-27T01:26:04.082Z,101456.91
2019-03-27T01:28:39.655Z,101461.83
2019-03-27T01:31:15.319Z,101465.89
2019-03-27T01:33:50.844Z,101466.63
2019-03-27T01:36:26.123Z,101463.71
2019-03-27T01:39:04.411Z,101457.13
2019-03-27T01:41:39.873Z,101457.45
2019-03-27T01:44:43.811Z,101465.27
2019-03-27T01:47:20.982Z,101466.64
2019-03-27T01:49:56.103Z,101459.89
2019-03-27T01:52:31.811Z,101462.41
2019-03-27T01:55:07.531Z,101474.58
2019-03-27T01:57:42.589Z,101476.05
2019-03-27T02:00:20.246Z,101476.84
2019-03-27T02:02:55.891Z,101477.65
2019-03-27T02:05:31.396Z,101482.05
2019-03-27T02:08:06.837Z,101481.72
2019-03-27T02:10:42.144Z,101485.11
2019-03-27T02:13:17.785Z,101482.78
2019-03-27T02:16:05.856Z,101475.61
2019-03-27T02:18:42.843Z,101472.78
2019-03-27T02:21:18.543Z,101473.30
2019-03-27T02:23:53.949Z,101472.07
2019-03-27T02:26:29.428Z,101470.78
2019-03-27T02:29:05.065Z,101471.76
2019-03-27T02:31:40.361Z,101472.62
2019-03-27T02:34:15.640Z,101467.59
2019-03-27T02:36:51.063Z,101469.33
2019-03-27T02:39:26.531Z,101466.79
2019-03-27T02:42:03.001Z,101473.69
2019-03-27T02:44:38.331Z,101475.92
2019-03-27T02:47:13.857Z,101468.06
2019-03-27T02:49:50.314Z,101465.36
2019-03-27T02:52:25.758Z,101462.03
2019-03-27T02:55:00.860Z,101459.09
2019-03-27T02:57:36.229Z,101453.66
2019-03-27T03:00:14.284Z,101454.99
2019-03-27T03:02:49.771Z,101453.05
2019-03-27T03:05:26.549Z,101458.95
2019-03-27T03:08:02.494Z,101454.28
2019-03-27T03:10:37.829Z,101452.72
2019-03-27T03:13:13.256Z,101447.48
2019-03-27T03:15:48.550Z,101446.18
2019-03-27T03:18:24.183Z,101450.77
2019-03-27T03:20:59.301Z,101448.03
2019-03-27T03:23:34.684Z,101448.81
2019-03-27T03:26:10.130Z,101450.72
2019-03-27T03:28:46.028Z,101451.27
2019-03-27T03:31:21.764Z,101460.03
2019-03-27T03:33:57.851Z,101461.95
2019-03-27T03:36:36.390Z,101460.63
2019-03-27T03:39:15.252Z,101470.75
2019-03-27T03:41:51.470Z,101470.95
2019-03-27T03:44:27.822Z,101482.23
2019-03-27T03:47:03.250Z,101480.57
2019-03-27T03:49:39.485Z,101484.04
2019-03-27T03:52:15.527Z,101484.99
2019-03-27T03:54:53.870Z,101483.48
2019-03-27T03:57:30.617Z,101484.97
2019-03-27T04:00:10.673Z,101491.04
2019-03-27T04:02:49.556Z,101492.98
2019-03-27T04:05:26.965Z,101493.16
2019-03-27T04:08:02.695Z,101493.09
2019-03-27T04:10:37.487Z,101495.81
2019-03-27T04:13:13.101Z,101500.61
2019-03-27T04:15:48.755Z,101502.05
2019-03-27T04:18:23.985Z,101509.90
2019-03-27T04:21:00.119Z,101516.62
2019-03-27T04:23:36.495Z,101525.53
2019-03-27T04:26:12.645Z,101523.75
2019-03-27T04:28:48.082Z,101517.64
2019-03-27T04:31:23.231Z,101527.76
2019-03-27T04:33:58.439Z,101527.41
2019-03-27T04:36:34.054Z,101529.34
2019-03-27T04:39:09.763Z,101525.94
2019-03-27T04:41:48.567Z,101531.44
2019-03-27T04:44:24.554Z,101529.21
2019-03-27T04:47:00.165Z,101534.69
2019-03-27T04:49:37.623Z,101539.41
2019-03-27T04:52:12.939Z,101539.88
2019-03-27T04:54:48.457Z,101536.55
2019-03-27T04:57:23.790Z,101538.76
2019-03-27T05:00:00.394Z,101537.84
2019-03-27T05:02:37.313Z,101529.44
2019-03-27T05:05:18.561Z,101531.34
2019-03-27T05:07:54.180Z,101532.13
2019-03-27T05:10:29.844Z,101532.45
2019-03-27T05:13:05.998Z,101540.48
2019-03-27T05:15:41.572Z,101538.94
2019-03-27T05:18:18.161Z,101540.05
2019-03-27T05:20:53.555Z,101533.72
2019-03-27T05:23:29.577Z,101542.37
2019-03-27T05:26:11.750Z,101542.17
2019-03-27T05:28:47.299Z,101531.19
2019-03-27T05:31:22.712Z,101537.77
2019-03-27T05:33:58.288Z,101538.66
2019-03-27T05:36:33.939Z,101542.75
2019-03-27T05:39:10.057Z,101550.74
2019-03-27T05:41:46.830Z,101557.32
2019-03-27T05:44:22.113Z,101560.81
2019-03-27T05:46:59.241Z,101566.58
2019-03-27T05:49:35.670Z,101573.93
2019-03-27T05:52:11.645Z,101574.73
2019-03-27T05:54:46.910Z,101571.59
2019-03-27T05:57:23.765Z,101581.63
2019-03-27T06:00:01.446Z,101582.80
2019-03-27T06:02:38.330Z,101587.79
2019-03-27T06:05:14.140Z,101589.41
2019-03-27T06:07:49.328Z,101593.05
2019-03-27T06:10:25.331Z,101589.20
2019-03-27T06:13:00.559Z,101588.86
2019-03-27T06:15:36.409Z,101581.66
2019-03-27T06:18:13.581Z,101585.91
2019-03-27T06:20:49.236Z,101586.30
2019-03-27T06:23:24.743Z,101588.58
2019-03-27T06:26:00.659Z,101582.40
2019-03-27T06:28:38.259Z,101586.07
2019-03-27T06:31:14.828Z,101584.93
2019-03-27T06:33:52.937Z,101584.84
2019-03-27T06:36:31.811Z,101583.11
2019-03-27T06:39:09.238Z,101586.68
2019-03-27T06:41:44.915Z,101597.97
2019-03-27T06:44:20.596Z,101603.22
2019-03-27T06:46:56.362Z,101605.44
2019-03-27T06:49:31.591Z,101608.34
2019-03-27T06:52:08.448Z,101611.22
2019-03-27T06:54:47.696Z,101607.23
2019-03-27T06:57:24.082Z,101609.98
2019-03-27T07:00:00.455Z,101614.39
2019-03-27T07:02:38.791Z,101619.28
2019-03-27T07:05:16.123Z,101618.68
2019-03-27T07:07:52.400Z,101619.14
2019-03-27T07:10:28.183Z,101617.47
2019-03-27T07:13:04.598Z,101616.52
2019-03-27T07:15:42.409Z,101626.47
2019-03-27T07:18:22.446Z,101625.86
2019-03-27T07:20:57.630Z,101627.63
2019-03-27T07:23:34.807Z,101624.66
2019-03-27T07:26:11.527Z,101623.47
2019-03-27T07:28:56.178Z,101624.58
2019-03-27T07:31:33.967Z,101623.50
2019-03-27T07:34:12.022Z,101622.80
2019-03-27T07:36:51.743Z,101625.25
2019-03-27T07:39:27.914Z,101627.86
2019-03-27T07:42:08.526Z,101619.53
2019-03-27T07:44:45.713Z,101620.95
2019-03-27T07:47:25.870Z,101622.11
2019-03-27T07:50:01.945Z,101623.91
2019-03-27T07:52:40.886Z,101621.73
2019-03-27T07:55:36.325Z,101621.27
2019-03-27T07:58:13.319Z,101623.02
2019-03-27T08:00:48.532Z,101631.35
2019-03-27T08:03:24.403Z,101631.42
2019-03-27T08:06:01.663Z,101631.19
2019-03-27T08:08:41.592Z,101635.69
2019-03-27T08:11:18.638Z,101634.31
2019-03-27T08:13:55.738Z,101624.95
2019-03-27T08:16:33.582Z,101632.91
2019-03-27T08:19:09.026Z,101632.86
2019-03-27T08:22:03.722Z,101628.42
2019-03-27T08:24:42.392Z,101635.38
2019-03-27T08:27:17.665Z,101641.23
2019-03-27T08:29:54.154Z,101634.13
2019-03-27T08:32:30.549Z,101643.53
2019-03-27T08:35:07.530Z,101646.69
2019-03-27T08:37:44.080Z,101643.30
2019-03-27T08:40:20.261Z,101646.02
2019-03-27T08:43:05.246Z,101646.88
2019-03-27T08:45:44.678Z,101637.37
2019-03-27T08:48:25.813Z,101646.77
2019-03-27T08:51:03.373Z,101646.72
2019-03-27T08:53:40.159Z,101647.32
2019-03-27T08:56:20.897Z,101644.54
2019-03-27T08:58:58.568Z,101653.75
2019-03-27T09:01:34.202Z,101654.67
2019-03-27T09:04:10.237Z,101660.35
2019-03-27T09:06:46.164Z,101655.36
2019-03-27T09:09:24.158Z,101650.22
2019-03-27T09:12:00.237Z,101653.23
2019-03-27T09:14:37.679Z,101659.19
2019-03-27T09:17:16.285Z,101660.92
2019-03-27T09:19:53.886Z,101663.14
2019-03-27T09:22:39.312Z,101661.39
2019-03-27T09:25:21.754Z,101670.28
2019-03-27T09:27:59.435Z,101662.50
2019-03-27T09:30:37.054Z,101665.09
2019-03-27T09:33:12.785Z,101665.05
2019-03-27T09:35:52.111Z,101668.72
2019-03-27T09:38:30.050Z,101663.77
2019-03-27T09:41:05.963Z,101660.59
2019-03-27T09:46:54.648Z,101663.78
2019-03-27T09:49:29.903Z,101660.36
2019-03-27T09:52:05.759Z,101660.63
2019-03-27T09:54:41.038Z,101658.13
2019-03-27T09:57:16.400Z,101661.04
2019-03-27T09:59:53.787Z,101674.69
2019-03-27T10:02:30.055Z,101673.70
2019-03-27T10:05:05.683Z,101672.14
2019-03-27T10:07:42.844Z,101664.20
2019-03-27T10:10:23.363Z,101666.67
2019-03-27T10:13:00.953Z,101670.02
2019-03-27T10:15:38.231Z,101670.16
2019-03-27T10:18:23.135Z,101668.03
2019-03-27T10:20:59.221Z,101666.38
2019-03-27T10:23:34.664Z,101665.66
2019-03-27T10:26:09.906Z,101667.95
2019-03-27T10:28:46.708Z,101666.14
2019-03-27T10:31:23.402Z,101666.94
2019-03-27T10:34:07.636Z,101671.99
2019-03-27T10:36:55.911Z,101670.55
2019-03-27T10:39:33.536Z,101668.44
2019-03-27T10:42:18.075Z,101672.97
2019-03-27T10:44:56.500Z,101666.80
2019-03-27T10:47:32.041Z,101665.45
2019-03-27T10:50:17.626Z,101671.07
2019-03-27T10:52:56.835Z,101665.14
2019-03-27T10:55:37.093Z,101665.77
2019-03-27T10:58:13.776Z,101676.17
2019-03-27T11:00:51.329Z,101672.68
2019-03-27T11:03:29.551Z,101674.92
2019-03-27T11:06:05.390Z,101670.83
2019-03-27T11:08:41.955Z,101678.22
2019-03-27T11:11:17.192Z,101670.22
2019-03-27T11:13:53.590Z,101665.84
2019-03-27T11:16:29.265Z,101670.47
2019-03-27T11:19:05.385Z,101676.20
2019-03-27T11:21:40.675Z,101670.73
2019-03-27T11:24:17.517Z,101664.59
2019-03-27T11:26:56.573Z,101661.14
2019-03-27T11:29:32.011Z,101669.39
2019-03-27T11:32:14.148Z,101666.84
2019-03-27T11:34:50.355Z,101666.16
2019-03-27T11:37:26.451Z,101666.02
2019-03-27T11:40:06.243Z,101667.75
2019-03-27T11:42:42.041Z,101662.07
2019-03-27T11:45:21.790Z,101656.31
2019-03-27T11:47:59.643Z,101652.98
2019-03-27T11:50:44.778Z,101653.63
2019-03-27T11:53:23.528Z,101654.23
2019-03-27T11:56:05.845Z,101662.09
2019-03-27T11:58:44.279Z,101665.08
2019-03-27T12:01:38.619Z,101661.02
2019-03-27T12:04:18.993Z,101662.69
2019-03-27T12:06:57.691Z,101659.44
2019-03-27T12:09:35.419Z,101661.50
2019-03-27T12:12:14.767Z,101660.70
2019-03-27T12:14:51.679Z,101657.37
2019-03-27T12:17:28.322Z,101655.75
2019-03-27T12:20:08.849Z,101658.05
2019-03-27T12:22:57.311Z,101656.98
2019-03-27T12:25:34.682Z,101657.59
2019-03-27T12:28:13.267Z,101651.92
2019-03-27T12:30:50.636Z,101645.45
2019-03-27T12:33:37.732Z,101642.23
2019-03-27T12:36:19.027Z,101641.02
2019-03-27T12:38:56.747Z,101637.98
2019-03-27T12:41:44.045Z,101638.14
2019-03-27T12:44:25.662Z,101633.61
2019-03-27T12:47:03.895Z,101630.14
2019-03-27T12:49:51.846Z,101631.98
2019-03-27T12:52:33.490Z,101626.08
2019-03-27T12:55:10.792Z,101631.34
2019-03-27T12:57:47.451Z,101629.78
2019-03-27T13:00:24.450Z,101630.34
2019-03-27T13:03:12.909Z,101623.34
2019-03-27T13:05:51.451Z,101624.77
2019-03-27T13:08:40.586Z,101622.00
2019-03-27T13:11:21.554Z,101624.00
2019-03-27T13:13:57.382Z,101623.63
2019-03-27T13:16:36.725Z,101626.92
2019-03-27T13:19:15.639Z,101630.77
2019-03-27T13:21:56.087Z,101629.19
2019-03-27T13:24:35.458Z,101632.14
2019-03-27T13:27:15.987Z,101634.68
2019-03-27T13:29:52.604Z,101638.63
2019-03-27T13:32:29.903Z,101640.95
2019-03-27T13:35:07.799Z,101634.78
2019-03-27T13:37:44.790Z,101631.27
2019-03-27T13:40:26.264Z,101634.36
2019-03-27T13:43:03.236Z,101630.08
2019-03-27T13:45:40.560Z,101629.22
2019-03-27T13:48:16.707Z,101629.05
2019-03-27T13:50:52.375Z,101633.99
2019-03-27T13:53:29.328Z,101629.91
2019-03-27T13:56:06.931Z,101627.72
2019-03-27T13:58:43.587Z,101629.51
2019-03-27T14:01:18.775Z,101632.60
2019-03-27T14:04:04.413Z,101630.53
2019-03-27T14:06:40.849Z,101630.97
2019-03-27T14:09:17.461Z,101634.39
2019-03-27T14:11:53.406Z,101640.77
2019-03-27T14:14:29.918Z,101636.65
2019-03-27T14:17:11.794Z,101640.78
2019-03-27T14:19:48.859Z,101636.63
2019-03-27T14:22:27.214Z,101641.08
2019-03-27T14:25:06.882Z,101640.64
2019-03-27T14:27:45.284Z,101640.54
2019-03-27T14:30:58.850Z,101641.72
2019-03-27T14:33:42.423Z,101633.37
2019-03-27T14:36:23.092Z,101630.30
2019-03-27T14:39:02.604Z,101624.41
2019-03-27T14:41:40.943Z,101627.81
2019-03-27T14:44:22.500Z,101625.83
2019-03-27T14:46:59.713Z,101622.47
2019-03-27T14:49:39.950Z,101618.73
2019-03-27T14:52:24.951Z,101615.69
2019-03-27T14:55:07.416Z,101621.12
2019-03-27T14:57:44.660Z,101619.51
2019-03-27T15:00:27.717Z,101617.45
2019-03-27T15:03:06.567Z,101623.12
2019-03-27T15:05:45.767Z,101624.11
2019-03-27T15:08:34.847Z,101626.27
2019-03-27T15:11:19.809Z,101625.98
2019-03-27T15:13:59.646Z,101624.00
2019-03-27T15:16:40.474Z,101618.31
2019-03-27T15:19:19.502Z,101620.42
2019-03-27T15:22:01.876Z,101616.76
2019-03-27T15:24:38.471Z,101614.35
2019-03-27T15:27:17.576Z,101621.09
2019-03-27T15:30:06.720Z,101618.97
2019-03-27T15:32:43.381Z,101621.83
2019-03-27T15:35:23.702Z,101619.83
2019-03-27T15:38:03.460Z,101620.98
2019-03-27T15:40:47.424Z,101619.15
2019-03-27T15:43:22.828Z,101614.39
2019-03-27T15:46:00.494Z,101612.27
2019-03-27T15:48:37.272Z,101608.31
2019-03-27T15:51:22.748Z,101614.67
2019-03-27T15:54:03.869Z,101613.37
2019-03-27T15:56:40.029Z,101612.87
2019-03-27T15:59:16.402Z,101612.49
2019-03-27T16:01:58.210Z,101613.37
2019-03-27T16:04:34.176Z,101615.56
2019-03-27T16:07:11.861Z,101616.13
2019-03-27T16:09:51.863Z,101614.78
2019-03-27T16:12:31.599Z,101613.44
2019-03-27T16:15:16.666Z,101613.50
2019-03-27T16:17:55.905Z,101611.05
2019-03-27T16:20:34.180Z,101613.58
2019-03-27T16:23:11.784Z,101611.27
2019-03-27T16:25:48.325Z,101610.28
2019-03-27T16:28:25.129Z,101612.06
2019-03-27T16:31:00.530Z,101608.90
2019-03-27T16:33:38.522Z,101606.91
2019-03-27T16:36:16.395Z,101607.78
2019-03-27T16:38:53.158Z,101613.94
2019-03-27T16:41:30.640Z,101610.09
2019-03-27T16:44:09.642Z,101614.98
2019-03-27T16:46:46.464Z,101619.92
2019-03-27T16:49:26.830Z,101621.45
2019-03-27T16:52:09.813Z,101623.33
2019-03-27T16:54:53.391Z,101626.56
2019-03-27T16:57:31.825Z,101628.59
2019-03-27T17:00:12.850Z,101624.95
2019-03-27T17:02:50.233Z,101630.42
2019-03-27T17:05:26.589Z,101629.63
2019-03-27T17:08:05.750Z,101632.17
2019-03-27T17:10:43.052Z,101631.42
2019-03-27T17:13:18.865Z,101632.00
2019-03-27T17:15:54.585Z,101633.08
2019-03-27T17:18:32.761Z,101629.66
2019-03-27T17:21:09.881Z,101627.09
2019-03-27T17:23:45.980Z,101636.70
2019-03-27T17:26:25.338Z,101641.09
2019-03-27T17:29:01.115Z,101644.05
2019-03-27T17:31:38.780Z,101647.73
2019-03-27T17:34:16.662Z,101641.02
2019-03-27T17:36:53.883Z,101647.70
2019-03-27T17:39:33.989Z,101645.43
2019-03-27T17:42:10.147Z,101645.31
2019-03-27T17:44:47.740Z,101641.25
2019-03-27T17:47:25.677Z,101643.22
2019-03-27T17:50:05.578Z,101640.97
2019-03-27T17:52:42.915Z,101649.10
2019-03-27T17:55:20.110Z,101645.95
2019-03-27T17:57:56.530Z,101643.22
2019-03-27T18:00:57.833Z,101650.86
2019-03-27T18:03:38.812Z,101651.85
2019-03-27T18:06:14.942Z,101647.08
2019-03-27T18:08:52.434Z,101646.09
2019-03-27T18:11:28.805Z,101646.63
2019-03-27T18:14:11.627Z,101651.82
2019-03-27T18:16:47.548Z,101654.32
2019-03-27T18:19:26.759Z,101654.36
2019-03-27T18:22:08.023Z,101658.56
2019-03-27T18:24:44.839Z,101660.30
2019-03-27T18:27:25.009Z,101664.76
2019-03-27T18:30:05.679Z,101670.59
2019-03-27T18:32:42.847Z,101667.12
2019-03-27T18:35:24.405Z,101670.77
2019-03-27T18:38:00.616Z,101675.87
2019-03-27T18:40:37.397Z,101670.36
2019-03-27T18:43:19.200Z,101673.58
2019-03-27T18:46:00.180Z,101678.74
2019-03-27T18:48:36.830Z,101680.51
2019-03-27T18:51:19.062Z,101683.91
2019-03-27T18:54:00.001Z,101682.03
2019-03-27T18:56:40.819Z,101692.77
2019-03-27T18:59:19.323Z,101692.51
2019-03-27T19:01:59.454Z,101696.35
2019-03-27T19:04:43.725Z,101696.41
2019-03-27T19:07:22.874Z,101701.66
2019-03-27T19:10:01.416Z,101704.56
2019-03-27T19:12:39.486Z,101700.78
2019-03-27T19:15:21.412Z,101696.00
2019-03-27T19:18:00.054Z,101696.71
2019-03-27T19:20:40.706Z,101702.90
2019-03-27T19:23:26.357Z,101705.45
2019-03-27T19:26:06.560Z,101710.52
2019-03-27T19:31:53.835Z,101713.02
2019-03-27T19:34:32.929Z,101712.96
2019-03-27T19:37:09.103Z,101712.07
2019-03-27T19:39:46.883Z,101711.70
2019-03-27T19:42:22.972Z,101708.78
2019-03-27T19:45:00.532Z,101708.28
2019-03-27T19:47:41.756Z,101705.41
2019-03-27T19:50:17.401Z,101708.39
2019-03-27T19:52:53.367Z,101713.53
2019-03-27T19:55:32.834Z,101710.83
2019-03-27T19:58:13.787Z,101711.94
2019-03-27T20:00:51.328Z,101712.63
2019-03-27T20:03:28.306Z,101716.34
2019-03-27T20:06:05.553Z,101715.05
2019-03-27T20:08:42.468Z,101711.66
2019-03-27T20:11:19.297Z,101710.84
2019-03-27T20:13:56.528Z,101712.48
2019-03-27T20:16:32.775Z,101712.42
2019-03-27T20:19:10.047Z,101708.71
2019-03-27T20:21:49.677Z,101712.56
2019-03-27T20:24:40.189Z,101713.07
2019-03-27T20:27:17.463Z,101717.25
2019-03-27T20:29:55.425Z,101719.59
2019-03-27T20:32:37.892Z,101717.39
2019-03-27T20:35:17.689Z,101719.05
2019-03-27T20:37:58.120Z,101718.18
2019-03-27T20:40:35.177Z,101719.59
2019-03-27T20:43:18.026Z,101717.50
2019-03-27T20:46:05.742Z,101720.55
2019-03-27T20:48:43.385Z,101720.34
2019-03-27T20:51:18.728Z,101720.63
2019-03-27T20:54:01.367Z,101725.55
2019-03-27T20:56:44.012Z,101720.38
2019-03-27T20:59:21.195Z,101717.43
2019-03-27T21:01:58.429Z,101720.98
2019-03-27T21:04:39.437Z,101722.92
2019-03-27T21:07:18.711Z,101727.27
2019-03-27T21:09:59.335Z,101724.45
2019-03-27T21:12:41.179Z,101722.55
2019-03-27T21:15:21.730Z,101723.05
2019-03-27T21:18:17.836Z,101721.33
2019-03-27T21:21:06.851Z,101722.52
2019-03-27T21:23:59.334Z,101725.05
2019-03-27T21:26:37.592Z,101723.17
2019-03-27T21:29:29.670Z,101725.86
2019-03-27T21:32:09.778Z,101728.31
2019-03-27T21:34:49.980Z,101729.92
2019-03-27T21:37:31.590Z,101730.09
2019-03-27T21:40:22.491Z,101725.91
2019-03-27T21:43:02.408Z,101725.23
2019-03-27T21:45:40.700Z,101727.02
2019-03-27T21:48:17.719Z,101726.28
2019-03-27T21:50:53.019Z,101732.23
2019-03-27T21:53:29.680Z,101733.06
2019-03-27T21:56:07.089Z,101732.98
2019-03-27T21:58:44.586Z,101736.62
2019-03-27T22:01:21.547Z,101734.34
2019-03-27T22:03:56.835Z,101728.86
2019-03-27T22:06:33.751Z,101736.09
2019-03-27T22:09:12.175Z,101731.49
2019-03-27T22:11:50.164Z,101731.34
2019-03-27T22:14:25.857Z,101730.20
2019-03-27T22:17:04.783Z,101729.61
2019-03-27T22:19:41.453Z,101729.83
2019-03-27T22:22:18.685Z,101728.92
2019-03-27T22:24:54.700Z,101734.05
2019-03-27T22:27:30.867Z,101734.76
2019-03-27T22:30:10.480Z,101739.09
2019-03-27T22:32:47.806Z,101742.61
2019-03-27T22:35:23.047Z,101745.33
2019-03-27T22:37:59.475Z,101746.41
2019-03-27T22:40:40.329Z,101742.76
2019-03-27T22:43:16.420Z,101741.36
2019-03-27T22:45:52.178Z,101744.58
2019-03-27T22:48:29.535Z,101745.70
2019-03-27T22:51:05.221Z,101745.36
2019-03-27T22:53:42.354Z,101747.44
2019-03-27T22:56:19.788Z,101744.33
2019-03-27T22:59:14.029Z,101745.66
2019-03-27T23:01:51.173Z,101751.12
2019-03-27T23:04:27.820Z,101752.55
2019-03-27T23:07:04.294Z,101747.63
2019-03-27T23:09:41.162Z,101752.52
2019-03-27T23:12:17.444Z,101750.02
2019-03-27T23:14:53.378Z,101745.20
2019-03-27T23:17:29.388Z,101748.87
2019-03-27T23:20:05.308Z,101751.09
2019-03-27T23:26:02.522Z,101756.40
2019-03-27T23:28:39.342Z,101760.16
2019-03-27T23:31:14.496Z,101755.09
2019-03-27T23:33:50.725Z,101756.44
2019-03-27T23:36:26.065Z,101758.38
2019-03-27T23:39:01.406Z,101761.09
2019-03-27T23:41:37.074Z,101760.16
2019-03-27T23:44:14.164Z,101761.94
2019-03-27T23:46:50.322Z,101763.51
2019-03-27T23:49:28.815Z,101757.72
2019-03-27T23:52:05.452Z,101757.80
2019-03-27T23:54:40.958Z,101758.22
2019-03-27T23:57:17.243Z,101755.30
2019-03-27T23:59:52.621Z,101754.80
